WMT767 EBCI-LRIA
Flight info
| Callsign | WMT767 |
|---|---|
| Flight time | 2h 21m |
| Altitude | 37000 |
| Route | SOPOK Y863 OGLOR DCT EMGOD DCT BOMBI L984 LONLI DCT ABERU L984 OKG DCT ROMIS DCT TEPNI DCT ABULI DCT KARIL DCT TOMUC/N0283F090 P133 ARPIG |
| Aircraft | A320/M-SDE1E2E3FGIJ1J4RWXY/LB1 |
Departure
| Time | 2026-05-04 16:46 |
|---|---|
| Airport | Brussels South Charleroi Airport (EBCI) |
Arrival
| Time | 2026-05-04 19:07 |
|---|---|
| Airport | Iaşi International Airport (LRIA) |
| Time | Latitude | Longitude | Altitude | Speed | Heading |
|---|---|---|---|---|---|
| 2026-05-04 16:16 | 50.46856 | 4.47041 | 623 ft | 0 kts | 335° |
| 2026-05-04 16:17 | 50.46855 | 4.47041 | 623 ft | 0 kts | 335° |
| 2026-05-04 16:35 | 50.46813 | 4.47059 | 624 ft | 4 kts | 11° |
| 2026-05-04 16:35 | 50.46794 | 4.47043 | 624 ft | 0 kts | 65° |
| 2026-05-04 16:38 | 50.46803 | 4.47074 | 623 ft | 4 kts | 65° |
| 2026-05-04 16:39 | 50.46849 | 4.47306 | 615 ft | 9 kts | 120° |
| 2026-05-04 16:39 | 50.46732 | 4.47402 | 623 ft | 4 kts | 155° |
| 2026-05-04 16:40 | 50.46730 | 4.47403 | 624 ft | 0 kts | 155° |
| 2026-05-04 16:44 | 50.46657 | 4.47455 | 624 ft | 6 kts | 156° |
| 2026-05-04 16:45 | 50.46562 | 4.47268 | 624 ft | 45 kts | 244° |
| 2026-05-04 16:46 | 50.45478 | 4.43475 | 1173 ft | 163 kts | 244° |
| 2026-05-04 16:46 | 50.44534 | 4.40138 | 2428 ft | 184 kts | 244° |
| 2026-05-04 16:47 | 50.43315 | 4.35960 | 3562 ft | 235 kts | 245° |
| 2026-05-04 16:47 | 50.42090 | 4.30902 | 5131 ft | 260 kts | 264° |
| 2026-05-04 16:48 | 50.45197 | 4.24316 | 6910 ft | 285 kts | 349° |
| 2026-05-04 16:48 | 50.47165 | 4.24581 | 6967 ft | 288 kts | 20° |
| 2026-05-04 16:49 | 50.50321 | 4.28378 | 6976 ft | 290 kts | 42° |
| 2026-05-04 16:49 | 50.53334 | 4.32628 | 7125 ft | 296 kts | 42° |
| 2026-05-04 16:50 | 50.56243 | 4.36715 | 9019 ft | 298 kts | 42° |
| 2026-05-04 16:50 | 50.59389 | 4.41140 | 10343 ft | 321 kts | 41° |
| 2026-05-04 16:51 | 50.62912 | 4.46112 | 11260 ft | 348 kts | 41° |
| 2026-05-04 16:51 | 50.64724 | 4.48680 | 11957 ft | 353 kts | 41° |
| 2026-05-04 16:51 | 50.68387 | 4.53931 | 13353 ft | 362 kts | 46° |
| 2026-05-04 16:52 | 50.70743 | 4.60958 | 14591 ft | 369 kts | 80° |
| 2026-05-04 16:52 | 50.70917 | 4.64987 | 15189 ft | 369 kts | 97° |
| 2026-05-04 16:53 | 50.69645 | 4.72828 | 16413 ft | 372 kts | 110° |
| 2026-05-04 16:53 | 50.66114 | 4.83648 | 18288 ft | 374 kts | 128° |
| 2026-05-04 16:54 | 50.64654 | 4.87055 | 18842 ft | 377 kts | 128° |
| 2026-05-04 16:55 | 50.58678 | 5.00920 | 21359 ft | 389 kts | 129° |
| 2026-05-04 16:55 | 50.55610 | 5.08020 | 22388 ft | 394 kts | 129° |
| 2026-05-04 16:56 | 50.52518 | 5.15172 | 23412 ft | 400 kts | 129° |
| 2026-05-04 16:56 | 50.47781 | 5.26120 | 24744 ft | 405 kts | 130° |
| 2026-05-04 16:57 | 50.46209 | 5.29739 | 25185 ft | 407 kts | 130° |
| 2026-05-04 16:57 | 50.42996 | 5.37113 | 26072 ft | 410 kts | 130° |
| 2026-05-04 16:58 | 50.38112 | 5.48261 | 27346 ft | 416 kts | 131° |
| 2026-05-04 16:58 | 50.36470 | 5.52007 | 27766 ft | 418 kts | 131° |
| 2026-05-04 16:59 | 50.33183 | 5.59497 | 28567 ft | 422 kts | 131° |
| 2026-05-04 17:00 | 50.26447 | 5.74807 | 30114 ft | 434 kts | 127° |
| 2026-05-04 17:00 | 50.23409 | 5.88538 | 31015 ft | 455 kts | 110° |
| 2026-05-04 17:01 | 50.21813 | 5.98031 | 31906 ft | 453 kts | 110° |
| 2026-05-04 17:01 | 50.20189 | 6.07527 | 32835 ft | 451 kts | 110° |
| 2026-05-04 17:02 | 50.18683 | 6.17037 | 33803 ft | 453 kts | 103° |
| 2026-05-04 17:02 | 50.18687 | 6.26913 | 34554 ft | 463 kts | 88° |
| 2026-05-04 17:03 | 50.19016 | 6.31909 | 34884 ft | 463 kts | 89° |
| 2026-05-04 17:03 | 50.19330 | 6.36906 | 35222 ft | 462 kts | 89° |
| 2026-05-04 17:03 | 50.19937 | 6.46922 | 35893 ft | 462 kts | 89° |
| 2026-05-04 17:04 | 50.20531 | 6.56937 | 36510 ft | 463 kts | 88° |
| 2026-05-04 17:04 | 50.20940 | 6.66899 | 36949 ft | 460 kts | 95° |
| 2026-05-04 17:05 | 50.20587 | 6.86856 | 36996 ft | 460 kts | 96° |
| 2026-05-04 17:06 | 50.20300 | 7.01856 | 37003 ft | 460 kts | 96° |
| 2026-05-04 17:07 | 50.20034 | 7.15163 | 37005 ft | 460 kts | 96° |
| 2026-05-04 17:07 | 50.19777 | 7.26758 | 36997 ft | 459 kts | 96° |
| 2026-05-04 17:08 | 50.18872 | 7.41510 | 36992 ft | 456 kts | 102° |
| 2026-05-04 17:09 | 50.17993 | 7.51317 | 36991 ft | 456 kts | 102° |
| 2026-05-04 17:09 | 50.17110 | 7.61127 | 36997 ft | 456 kts | 102° |
| 2026-05-04 17:10 | 50.14863 | 7.85573 | 36992 ft | 456 kts | 102° |
| 2026-05-04 17:11 | 50.13946 | 7.95351 | 36990 ft | 456 kts | 102° |
| 2026-05-04 17:12 | 50.12564 | 8.10014 | 36977 ft | 455 kts | 102° |
| 2026-05-04 17:13 | 50.10208 | 8.34378 | 36967 ft | 456 kts | 102° |
| 2026-05-04 17:14 | 50.08296 | 8.53864 | 36985 ft | 456 kts | 102° |
| 2026-05-04 17:15 | 50.06826 | 8.68535 | 36989 ft | 456 kts | 102° |
| 2026-05-04 17:16 | 50.05817 | 8.88187 | 36994 ft | 460 kts | 91° |
| 2026-05-04 17:17 | 50.06158 | 9.08082 | 37003 ft | 460 kts | 91° |
| 2026-05-04 17:18 | 50.06435 | 9.27991 | 37001 ft | 460 kts | 91° |
| 2026-05-04 17:19 | 50.06668 | 9.46272 | 36991 ft | 460 kts | 91° |
| 2026-05-04 17:20 | 50.06881 | 9.66149 | 36979 ft | 460 kts | 91° |
| 2026-05-04 17:20 | 50.07032 | 9.81026 | 36972 ft | 460 kts | 91° |
| 2026-05-04 17:21 | 50.07216 | 10.00975 | 36973 ft | 460 kts | 91° |
| 2026-05-04 17:22 | 50.07287 | 10.10873 | 36969 ft | 460 kts | 92° |
| 2026-05-04 17:23 | 50.07360 | 10.30836 | 36970 ft | 460 kts | 92° |
| 2026-05-04 17:24 | 50.07439 | 10.45721 | 36971 ft | 460 kts | 91° |
| 2026-05-04 17:25 | 50.07511 | 10.65606 | 36978 ft | 460 kts | 92° |
| 2026-05-04 17:26 | 50.07530 | 10.85537 | 36979 ft | 460 kts | 92° |
| 2026-05-04 17:27 | 50.07504 | 11.10457 | 36977 ft | 460 kts | 92° |
| 2026-05-04 17:28 | 50.07454 | 11.30307 | 36973 ft | 460 kts | 92° |
| 2026-05-04 17:29 | 50.07318 | 11.60196 | 36983 ft | 460 kts | 92° |
| 2026-05-04 17:31 | 50.07152 | 11.85074 | 36988 ft | 460 kts | 92° |
| 2026-05-04 17:32 | 50.06906 | 12.09946 | 36992 ft | 460 kts | 92° |
| 2026-05-04 17:33 | 50.06673 | 12.29834 | 36989 ft | 459 kts | 92° |
| 2026-05-04 17:34 | 50.05955 | 12.44662 | 36986 ft | 456 kts | 104° |
| 2026-05-04 17:34 | 50.05278 | 12.49501 | 36986 ft | 456 kts | 104° |
| 2026-05-04 17:35 | 50.01938 | 12.73615 | 36982 ft | 457 kts | 104° |
| 2026-05-04 17:36 | 50.00585 | 12.83222 | 36981 ft | 457 kts | 104° |
| 2026-05-04 17:36 | 49.99214 | 12.92900 | 36981 ft | 457 kts | 104° |
| 2026-05-04 17:37 | 49.97846 | 13.02495 | 36982 ft | 457 kts | 104° |
| 2026-05-04 17:37 | 49.96467 | 13.12140 | 36979 ft | 457 kts | 104° |
| 2026-05-04 17:38 | 49.95086 | 13.21754 | 36971 ft | 458 kts | 104° |
| 2026-05-04 17:38 | 49.93685 | 13.31419 | 36968 ft | 458 kts | 104° |
| 2026-05-04 17:39 | 49.91562 | 13.45875 | 36973 ft | 458 kts | 104° |
| 2026-05-04 17:39 | 49.90150 | 13.55453 | 36976 ft | 458 kts | 104° |
| 2026-05-04 17:40 | 49.88723 | 13.65086 | 36979 ft | 458 kts | 104° |
| 2026-05-04 17:40 | 49.87285 | 13.74715 | 37001 ft | 458 kts | 104° |
| 2026-05-04 17:41 | 49.85846 | 13.84326 | 36974 ft | 459 kts | 105° |
| 2026-05-04 17:41 | 49.84387 | 13.93967 | 36967 ft | 459 kts | 105° |
| 2026-05-04 17:42 | 49.82922 | 14.03562 | 36969 ft | 460 kts | 105° |
| 2026-05-04 17:42 | 49.81444 | 14.13214 | 36967 ft | 460 kts | 105° |
| 2026-05-04 17:43 | 49.79960 | 14.22863 | 36967 ft | 460 kts | 105° |
| 2026-05-04 17:43 | 49.78472 | 14.32496 | 36969 ft | 460 kts | 105° |
| 2026-05-04 17:44 | 49.76988 | 14.42071 | 36972 ft | 460 kts | 105° |
| 2026-05-04 17:44 | 49.75476 | 14.51720 | 36970 ft | 460 kts | 105° |
| 2026-05-04 17:45 | 49.73960 | 14.61336 | 36972 ft | 460 kts | 105° |
| 2026-05-04 17:45 | 49.72441 | 14.70927 | 36972 ft | 460 kts | 105° |
| 2026-05-04 17:46 | 49.70919 | 14.80484 | 36967 ft | 459 kts | 105° |
| 2026-05-04 17:46 | 49.69383 | 14.90082 | 36969 ft | 459 kts | 105° |
| 2026-05-04 17:47 | 49.67848 | 14.99611 | 36962 ft | 459 kts | 105° |
| 2026-05-04 17:47 | 49.66290 | 15.09200 | 36962 ft | 459 kts | 105° |
| 2026-05-04 17:48 | 49.64730 | 15.18771 | 36959 ft | 459 kts | 105° |
| 2026-05-04 17:48 | 49.63169 | 15.28284 | 36955 ft | 459 kts | 105° |
| 2026-05-04 17:49 | 49.61585 | 15.37857 | 36954 ft | 459 kts | 105° |
| 2026-05-04 17:49 | 49.60010 | 15.47337 | 36955 ft | 459 kts | 105° |
| 2026-05-04 17:50 | 49.58420 | 15.56895 | 36952 ft | 459 kts | 105° |
| 2026-05-04 17:50 | 49.56830 | 15.66406 | 36951 ft | 459 kts | 105° |
| 2026-05-04 17:51 | 49.55219 | 15.75952 | 36957 ft | 459 kts | 105° |
| 2026-05-04 17:51 | 49.53606 | 15.85470 | 36962 ft | 459 kts | 105° |
| 2026-05-04 17:52 | 49.51980 | 15.95002 | 36967 ft | 459 kts | 105° |
| 2026-05-04 17:52 | 49.50354 | 16.04450 | 36970 ft | 459 kts | 105° |
| 2026-05-04 17:53 | 49.48711 | 16.13945 | 36977 ft | 459 kts | 105° |
| 2026-05-04 17:53 | 49.47068 | 16.23441 | 36977 ft | 459 kts | 105° |
| 2026-05-04 17:54 | 49.45431 | 16.32875 | 36978 ft | 459 kts | 105° |
| 2026-05-04 17:54 | 49.43769 | 16.42376 | 36985 ft | 459 kts | 105° |
| 2026-05-04 17:55 | 49.42092 | 16.51836 | 36981 ft | 459 kts | 105° |
| 2026-05-04 17:55 | 49.40411 | 16.61316 | 36983 ft | 459 kts | 105° |
| 2026-05-04 17:56 | 49.38747 | 16.70712 | 36985 ft | 459 kts | 105° |
| 2026-05-04 17:56 | 49.37055 | 16.80185 | 36986 ft | 459 kts | 105° |
| 2026-05-04 17:57 | 49.35352 | 16.89634 | 36988 ft | 459 kts | 105° |
| 2026-05-04 17:57 | 49.33654 | 16.99020 | 36989 ft | 459 kts | 105° |
| 2026-05-04 17:58 | 49.31938 | 17.08460 | 36991 ft | 459 kts | 105° |
| 2026-05-04 17:58 | 49.30222 | 17.17882 | 36989 ft | 458 kts | 105° |
| 2026-05-04 17:59 | 49.28466 | 17.27208 | 36989 ft | 458 kts | 110° |
| 2026-05-04 18:00 | 49.25005 | 17.40862 | 36991 ft | 457 kts | 112° |
| 2026-05-04 18:00 | 49.22611 | 17.49878 | 36987 ft | 457 kts | 112° |
| 2026-05-04 18:01 | 49.20226 | 17.58905 | 36993 ft | 457 kts | 112° |
| 2026-05-04 18:01 | 49.17874 | 17.67874 | 37000 ft | 457 kts | 112° |
| 2026-05-04 18:02 | 49.14332 | 17.81391 | 37009 ft | 456 kts | 112° |
| 2026-05-04 18:02 | 49.11954 | 17.90385 | 37009 ft | 456 kts | 112° |
| 2026-05-04 18:03 | 49.09582 | 17.99297 | 37015 ft | 455 kts | 112° |
| 2026-05-04 18:03 | 49.07186 | 18.08258 | 37038 ft | 455 kts | 112° |
| 2026-05-04 18:04 | 49.05188 | 18.15705 | 37024 ft | 454 kts | 112° |
| 2026-05-04 18:05 | 49.01599 | 18.29081 | 37032 ft | 454 kts | 112° |
| 2026-05-04 18:05 | 48.99214 | 18.37927 | 37029 ft | 453 kts | 112° |
| 2026-05-04 18:06 | 48.95602 | 18.51240 | 37040 ft | 453 kts | 112° |
| 2026-05-04 18:06 | 48.93183 | 18.60109 | 37043 ft | 453 kts | 112° |
| 2026-05-04 18:07 | 48.90756 | 18.68949 | 37060 ft | 452 kts | 112° |
| 2026-05-04 18:07 | 48.88345 | 18.77719 | 37050 ft | 452 kts | 112° |
| 2026-05-04 18:08 | 48.85914 | 18.86541 | 37062 ft | 452 kts | 112° |
| 2026-05-04 18:08 | 48.83483 | 18.95332 | 37066 ft | 451 kts | 112° |
| 2026-05-04 18:09 | 48.78602 | 19.12829 | 37082 ft | 451 kts | 113° |
| 2026-05-04 18:10 | 48.76151 | 19.21585 | 37079 ft | 450 kts | 113° |
| 2026-05-04 18:10 | 48.73708 | 19.30286 | 37080 ft | 450 kts | 113° |
| 2026-05-04 18:11 | 48.71243 | 19.39033 | 37086 ft | 450 kts | 113° |
| 2026-05-04 18:11 | 48.68794 | 19.47712 | 37081 ft | 449 kts | 113° |
| 2026-05-04 18:12 | 48.66314 | 19.56421 | 37093 ft | 449 kts | 113° |
| 2026-05-04 18:12 | 48.63833 | 19.65108 | 37094 ft | 449 kts | 113° |
| 2026-05-04 18:13 | 48.61375 | 19.73720 | 37091 ft | 449 kts | 113° |
| 2026-05-04 18:14 | 48.57661 | 19.86663 | 37089 ft | 448 kts | 113° |
| 2026-05-04 18:14 | 48.55166 | 19.95294 | 37090 ft | 448 kts | 113° |
| 2026-05-04 18:15 | 48.50155 | 20.12524 | 37091 ft | 447 kts | 113° |
| 2026-05-04 18:16 | 48.47654 | 20.21105 | 37086 ft | 447 kts | 113° |
| 2026-05-04 18:16 | 48.45164 | 20.29621 | 37073 ft | 446 kts | 113° |
| 2026-05-04 18:17 | 48.41384 | 20.42483 | 37073 ft | 446 kts | 113° |
| 2026-05-04 18:18 | 48.37603 | 20.55258 | 37072 ft | 446 kts | 113° |
| 2026-05-04 18:18 | 48.35085 | 20.63731 | 37071 ft | 446 kts | 113° |
| 2026-05-04 18:19 | 48.31262 | 20.76521 | 37068 ft | 447 kts | 113° |
| 2026-05-04 18:19 | 48.28710 | 20.85037 | 37068 ft | 446 kts | 113° |
| 2026-05-04 18:20 | 48.26172 | 20.93491 | 37065 ft | 446 kts | 113° |
| 2026-05-04 18:20 | 48.23611 | 21.01993 | 37071 ft | 447 kts | 113° |
| 2026-05-04 18:21 | 48.21033 | 21.10496 | 37068 ft | 447 kts | 113° |
| 2026-05-04 18:21 | 48.18474 | 21.18928 | 37070 ft | 446 kts | 113° |
| 2026-05-04 18:22 | 48.15896 | 21.27409 | 37068 ft | 446 kts | 113° |
| 2026-05-04 18:22 | 48.13310 | 21.35870 | 37071 ft | 446 kts | 113° |
| 2026-05-04 18:23 | 48.10725 | 21.44263 | 37071 ft | 446 kts | 113° |
| 2026-05-04 18:23 | 48.08124 | 21.52718 | 37074 ft | 446 kts | 113° |
| 2026-05-04 18:24 | 48.05526 | 21.61159 | 37079 ft | 446 kts | 113° |
| 2026-05-04 18:24 | 48.02913 | 21.69596 | 37078 ft | 446 kts | 113° |
| 2026-05-04 18:25 | 48.00307 | 21.77950 | 37080 ft | 446 kts | 113° |
| 2026-05-04 18:25 | 47.97677 | 21.86357 | 37078 ft | 446 kts | 113° |
| 2026-05-04 18:26 | 47.95047 | 21.94745 | 37080 ft | 446 kts | 113° |
| 2026-05-04 18:26 | 47.92432 | 22.03085 | 37078 ft | 446 kts | 113° |
| 2026-05-04 18:27 | 47.89792 | 22.11472 | 37081 ft | 446 kts | 113° |
| 2026-05-04 18:27 | 47.87139 | 22.19846 | 37082 ft | 446 kts | 113° |
| 2026-05-04 18:28 | 47.84495 | 22.28193 | 37084 ft | 446 kts | 113° |
| 2026-05-04 18:28 | 47.81852 | 22.36498 | 37082 ft | 446 kts | 113° |
| 2026-05-04 18:29 | 47.79602 | 22.45046 | 37082 ft | 441 kts | 100° |
| 2026-05-04 18:29 | 47.78930 | 22.54027 | 37075 ft | 438 kts | 91° |
| 2026-05-04 18:30 | 47.78297 | 22.67608 | 37072 ft | 438 kts | 92° |
| 2026-05-04 18:31 | 47.77854 | 22.76653 | 37069 ft | 438 kts | 92° |
| 2026-05-04 18:31 | 47.77406 | 22.85699 | 37070 ft | 438 kts | 92° |
| 2026-05-04 18:32 | 47.76958 | 22.94691 | 37072 ft | 438 kts | 92° |
| 2026-05-04 18:32 | 47.76498 | 23.03726 | 37075 ft | 438 kts | 92° |
| 2026-05-04 18:33 | 47.76030 | 23.12761 | 37076 ft | 438 kts | 92° |
| 2026-05-04 18:33 | 47.75557 | 23.21797 | 37080 ft | 438 kts | 92° |
| 2026-05-04 18:34 | 47.75076 | 23.30835 | 37077 ft | 438 kts | 92° |
| 2026-05-04 18:34 | 47.74588 | 23.39811 | 37074 ft | 438 kts | 92° |
| 2026-05-04 18:35 | 47.74091 | 23.48843 | 37074 ft | 438 kts | 93° |
| 2026-05-04 18:35 | 47.73594 | 23.57874 | 37081 ft | 438 kts | 93° |
| 2026-05-04 18:36 | 47.73092 | 23.66909 | 37086 ft | 438 kts | 93° |
| 2026-05-04 18:36 | 47.72576 | 23.75878 | 37090 ft | 438 kts | 93° |
| 2026-05-04 18:37 | 47.72048 | 23.84908 | 37099 ft | 438 kts | 93° |
| 2026-05-04 18:37 | 47.71520 | 23.93942 | 37109 ft | 438 kts | 93° |
| 2026-05-04 18:38 | 47.70985 | 24.02889 | 37111 ft | 437 kts | 93° |
| 2026-05-04 18:38 | 47.70436 | 24.11890 | 37111 ft | 437 kts | 93° |
| 2026-05-04 18:39 | 47.69888 | 24.20884 | 37115 ft | 438 kts | 93° |
| 2026-05-04 18:39 | 47.69331 | 24.29914 | 37115 ft | 438 kts | 93° |
| 2026-05-04 18:40 | 47.68773 | 24.38917 | 37117 ft | 438 kts | 93° |
| 2026-05-04 18:40 | 47.68492 | 24.43435 | 36957 ft | 438 kts | 93° |
| 2026-05-04 18:40 | 47.68208 | 24.47881 | 36696 ft | 437 kts | 94° |
| 2026-05-04 18:40 | 47.67914 | 24.52373 | 36440 ft | 437 kts | 94° |
| 2026-05-04 18:41 | 47.67619 | 24.56867 | 36186 ft | 436 kts | 93° |
| 2026-05-04 18:41 | 47.67325 | 24.61350 | 35931 ft | 436 kts | 93° |
| 2026-05-04 18:41 | 47.67030 | 24.65837 | 35682 ft | 435 kts | 93° |
| 2026-05-04 18:41 | 47.66737 | 24.70304 | 35437 ft | 433 kts | 93° |
| 2026-05-04 18:42 | 47.66446 | 24.74738 | 35076 ft | 429 kts | 93° |
| 2026-05-04 18:42 | 47.66163 | 24.79083 | 34620 ft | 427 kts | 93° |
| 2026-05-04 18:42 | 47.65873 | 24.83458 | 34143 ft | 425 kts | 93° |
| 2026-05-04 18:42 | 47.65578 | 24.87826 | 33620 ft | 423 kts | 93° |
| 2026-05-04 18:43 | 47.65284 | 24.92144 | 33147 ft | 420 kts | 93° |
| 2026-05-04 18:43 | 47.64992 | 24.96443 | 32674 ft | 416 kts | 93° |
| 2026-05-04 18:43 | 47.64702 | 25.00695 | 32207 ft | 413 kts | 93° |
| 2026-05-04 18:43 | 47.64411 | 25.04916 | 31740 ft | 409 kts | 93° |
| 2026-05-04 18:44 | 47.64121 | 25.09105 | 31286 ft | 406 kts | 93° |
| 2026-05-04 18:44 | 47.64023 | 25.10515 | 31129 ft | 405 kts | 93° |
| 2026-05-04 18:44 | 47.63544 | 25.17383 | 30385 ft | 400 kts | 93° |
| 2026-05-04 18:44 | 47.63263 | 25.21427 | 29921 ft | 397 kts | 93° |
| 2026-05-04 18:45 | 47.62978 | 25.25495 | 29490 ft | 393 kts | 93° |
| 2026-05-04 18:45 | 47.62694 | 25.29507 | 29073 ft | 389 kts | 93° |
| 2026-05-04 18:45 | 47.62411 | 25.33475 | 28664 ft | 385 kts | 94° |
| 2026-05-04 18:45 | 47.62127 | 25.37413 | 28268 ft | 381 kts | 94° |
| 2026-05-04 18:46 | 47.61842 | 25.41310 | 27874 ft | 378 kts | 94° |
| 2026-05-04 18:46 | 47.61559 | 25.45169 | 27482 ft | 375 kts | 94° |
| 2026-05-04 18:46 | 47.61374 | 25.47706 | 27218 ft | 373 kts | 94° |
| 2026-05-04 18:46 | 47.61097 | 25.51508 | 26832 ft | 369 kts | 93° |
| 2026-05-04 18:47 | 47.60823 | 25.55279 | 26444 ft | 366 kts | 94° |
| 2026-05-04 18:47 | 47.60550 | 25.59020 | 26053 ft | 364 kts | 94° |
| 2026-05-04 18:47 | 47.60274 | 25.62736 | 25664 ft | 361 kts | 94° |
| 2026-05-04 18:47 | 47.59997 | 25.66424 | 25251 ft | 359 kts | 94° |
| 2026-05-04 18:48 | 47.59723 | 25.70086 | 24849 ft | 356 kts | 94° |
| 2026-05-04 18:48 | 47.59450 | 25.73724 | 24441 ft | 354 kts | 94° |
| 2026-05-04 18:48 | 47.59176 | 25.77353 | 24023 ft | 352 kts | 94° |
| 2026-05-04 18:48 | 47.58906 | 25.80913 | 23614 ft | 350 kts | 93° |
| 2026-05-04 18:49 | 47.58636 | 25.84490 | 23153 ft | 348 kts | 93° |
| 2026-05-04 18:49 | 47.58370 | 25.88040 | 22736 ft | 345 kts | 93° |
| 2026-05-04 18:49 | 47.58103 | 25.91553 | 22323 ft | 342 kts | 93° |
| 2026-05-04 18:49 | 47.57835 | 25.95055 | 21900 ft | 340 kts | 93° |
| 2026-05-04 18:50 | 47.57567 | 25.98523 | 21493 ft | 337 kts | 93° |
| 2026-05-04 18:50 | 47.57300 | 26.01960 | 21088 ft | 335 kts | 93° |
| 2026-05-04 18:50 | 47.57038 | 26.05338 | 20689 ft | 332 kts | 93° |
| 2026-05-04 18:50 | 47.56774 | 26.08729 | 20284 ft | 330 kts | 93° |
| 2026-05-04 18:51 | 47.56511 | 26.12107 | 19877 ft | 328 kts | 93° |
| 2026-05-04 18:51 | 47.56249 | 26.15465 | 19475 ft | 327 kts | 93° |
| 2026-05-04 18:51 | 47.55987 | 26.18802 | 19074 ft | 326 kts | 93° |
| 2026-05-04 18:51 | 47.55723 | 26.22132 | 18673 ft | 325 kts | 93° |
| 2026-05-04 18:52 | 47.55457 | 26.25456 | 18265 ft | 324 kts | 93° |
| 2026-05-04 18:52 | 47.55194 | 26.28719 | 17846 ft | 322 kts | 93° |
| 2026-05-04 18:52 | 47.54926 | 26.32004 | 17444 ft | 319 kts | 93° |
| 2026-05-04 18:52 | 47.54659 | 26.35252 | 17054 ft | 317 kts | 93° |
| 2026-05-04 18:53 | 47.54394 | 26.38487 | 16666 ft | 315 kts | 93° |
| 2026-05-04 18:53 | 47.54135 | 26.41702 | 16274 ft | 313 kts | 93° |
| 2026-05-04 18:53 | 47.53877 | 26.44891 | 15891 ft | 311 kts | 93° |
| 2026-05-04 18:53 | 47.53624 | 26.48029 | 15508 ft | 309 kts | 93° |
| 2026-05-04 18:54 | 47.53368 | 26.51183 | 15128 ft | 308 kts | 93° |
| 2026-05-04 18:54 | 47.53112 | 26.54323 | 14748 ft | 306 kts | 93° |
| 2026-05-04 18:54 | 47.52856 | 26.57451 | 14372 ft | 305 kts | 93° |
| 2026-05-04 18:54 | 47.52599 | 26.60561 | 13994 ft | 304 kts | 93° |
| 2026-05-04 18:55 | 47.52343 | 26.63662 | 13597 ft | 303 kts | 93° |
| 2026-05-04 18:55 | 47.51826 | 26.69803 | 12836 ft | 298 kts | 93° |
| 2026-05-04 18:55 | 47.51568 | 26.72836 | 12470 ft | 297 kts | 93° |
| 2026-05-04 18:56 | 47.51315 | 26.75840 | 12080 ft | 296 kts | 93° |
| 2026-05-04 18:56 | 47.51060 | 26.78858 | 11707 ft | 295 kts | 93° |
| 2026-05-04 18:56 | 47.50796 | 26.81857 | 11316 ft | 294 kts | 96° |
| 2026-05-04 18:56 | 47.50206 | 26.84780 | 10928 ft | 298 kts | 107° |
| 2026-05-04 18:57 | 47.49483 | 26.87613 | 10604 ft | 290 kts | 107° |
| 2026-05-04 18:57 | 47.48777 | 26.90376 | 10174 ft | 286 kts | 107° |
| 2026-05-04 18:57 | 47.48074 | 26.93137 | 9784 ft | 288 kts | 107° |
| 2026-05-04 18:57 | 47.47368 | 26.95916 | 9375 ft | 288 kts | 107° |
| 2026-05-04 18:58 | 47.46660 | 26.98691 | 8990 ft | 288 kts | 107° |
| 2026-05-04 18:58 | 47.45951 | 27.01470 | 8606 ft | 288 kts | 107° |
| 2026-05-04 18:58 | 47.45254 | 27.04211 | 8222 ft | 289 kts | 107° |
| 2026-05-04 18:58 | 47.44545 | 27.06989 | 7870 ft | 288 kts | 107° |
| 2026-05-04 18:59 | 47.43836 | 27.09767 | 7529 ft | 287 kts | 107° |
| 2026-05-04 18:59 | 47.43128 | 27.12533 | 7152 ft | 287 kts | 107° |
| 2026-05-04 18:59 | 47.42420 | 27.15297 | 6764 ft | 288 kts | 107° |
| 2026-05-04 18:59 | 47.41713 | 27.18053 | 6376 ft | 289 kts | 108° |
| 2026-05-04 19:00 | 47.41011 | 27.20798 | 6135 ft | 284 kts | 108° |
| 2026-05-04 19:00 | 47.40312 | 27.23529 | 5765 ft | 284 kts | 108° |
| 2026-05-04 19:00 | 47.39625 | 27.26201 | 5259 ft | 280 kts | 109° |
| 2026-05-04 19:00 | 47.38939 | 27.28871 | 4743 ft | 275 kts | 109° |
| 2026-05-04 19:01 | 47.38281 | 27.31419 | 4601 ft | 255 kts | 109° |
| 2026-05-04 19:01 | 47.37669 | 27.33770 | 4522 ft | 238 kts | 110° |
| 2026-05-04 19:01 | 47.37089 | 27.36002 | 4421 ft | 227 kts | 110° |
| 2026-05-04 19:01 | 47.36533 | 27.38140 | 4315 ft | 217 kts | 110° |
| 2026-05-04 19:02 | 47.36004 | 27.40177 | 4231 ft | 207 kts | 110° |
| 2026-05-04 19:02 | 47.35501 | 27.42115 | 4142 ft | 200 kts | 110° |
| 2026-05-04 19:02 | 47.35010 | 27.44012 | 4054 ft | 197 kts | 110° |
| 2026-05-04 19:02 | 47.34527 | 27.45890 | 4007 ft | 195 kts | 110° |
| 2026-05-04 19:03 | 47.33880 | 27.47670 | 3796 ft | 199 kts | 130° |
| 2026-05-04 19:03 | 47.32795 | 27.48909 | 3568 ft | 196 kts | 148° |
| 2026-05-04 19:03 | 47.31661 | 27.49922 | 3313 ft | 190 kts | 148° |
| 2026-05-04 19:03 | 47.30548 | 27.50918 | 3054 ft | 184 kts | 148° |
| 2026-05-04 19:04 | 47.29464 | 27.51887 | 2817 ft | 179 kts | 148° |
| 2026-05-04 19:04 | 47.28434 | 27.52807 | 2581 ft | 167 kts | 148° |
| 2026-05-04 19:04 | 47.27480 | 27.53659 | 2374 ft | 154 kts | 147° |
| 2026-05-04 19:04 | 47.26609 | 27.54435 | 2188 ft | 141 kts | 147° |
| 2026-05-04 19:05 | 47.25794 | 27.55152 | 1992 ft | 136 kts | 147° |
| 2026-05-04 19:05 | 47.24988 | 27.55866 | 1816 ft | 134 kts | 147° |
| 2026-05-04 19:05 | 47.24194 | 27.56586 | 1621 ft | 133 kts | 147° |
| 2026-05-04 19:05 | 47.23400 | 27.57298 | 1456 ft | 133 kts | 147° |
| 2026-05-04 19:06 | 47.22605 | 27.58010 | 1288 ft | 134 kts | 148° |
| 2026-05-04 19:06 | 47.21814 | 27.58710 | 1108 ft | 135 kts | 148° |
| 2026-05-04 19:06 | 47.21009 | 27.59424 | 933 ft | 135 kts | 148° |
| 2026-05-04 19:06 | 47.20202 | 27.60149 | 750 ft | 136 kts | 147° |
| 2026-05-04 19:07 | 47.19394 | 27.60876 | 552 ft | 136 kts | 148° |
| 2026-05-04 19:07 | 47.18591 | 27.61592 | 400 ft | 129 kts | 148° |
| 2026-05-04 19:07 | 47.17992 | 27.62126 | 371 ft | 60 kts | 149° |
| 2026-05-04 19:07 | 47.17857 | 27.62195 | 366 ft | 12 kts | 221° |
| 2026-05-04 19:08 | 47.17814 | 27.62085 | 370 ft | 12 kts | 243° |
| 2026-05-04 19:08 | 47.17784 | 27.62000 | 372 ft | 8 kts | 243° |
| 2026-05-04 19:08 | 47.17754 | 27.61933 | 356 ft | 7 kts | 216° |
| 2026-05-04 19:08 | 47.17707 | 27.61944 | 378 ft | 8 kts | 153° |
| 2026-05-04 19:09 | 47.17669 | 27.61972 | 378 ft | 10 kts | 154° |
| 2026-05-04 19:09 | 47.17570 | 27.62044 | 378 ft | 12 kts | 154° |
| 2026-05-04 19:09 | 47.17507 | 27.62091 | 378 ft | 8 kts | 150° |
| 2026-05-04 19:09 | 47.17464 | 27.62116 | 378 ft | 5 kts | 193° |
| 2026-05-04 19:10 | 47.17453 | 27.62060 | 378 ft | 6 kts | 268° |
| 2026-05-04 19:10 | 47.17453 | 27.62035 | 378 ft | 0 kts | 269° |